createdAt,value
2023-01-27T00:00:31.472Z,18.95
2023-01-27T00:03:19.460Z,19.05
2023-01-27T00:05:47.149Z,19.55
2023-01-27T00:08:17.753Z,20.13
2023-01-27T00:10:44.854Z,17.13
2023-01-27T00:13:27.145Z,17.63
2023-01-27T00:15:54.765Z,19.75
2023-01-27T00:18:23.468Z,15.77
2023-01-27T00:21:09.128Z,20.48
2023-01-27T00:23:55.456Z,16.98
2023-01-27T00:26:23.089Z,16.25
2023-01-27T00:28:52.957Z,12.60
2023-01-27T00:31:38.286Z,14.10
2023-01-27T00:34:09.440Z,23.88
2023-01-27T00:36:38.019Z,16.80
2023-01-27T00:39:06.399Z,12.77
2023-01-27T00:41:34.191Z,15.73
2023-01-27T00:44:05.570Z,14.82
2023-01-27T00:46:33.465Z,14.93
2023-01-27T00:49:00.839Z,13.47
2023-01-27T00:51:27.827Z,14.63
2023-01-27T00:53:55.179Z,12.98
2023-01-27T00:56:22.122Z,13.60
2023-01-27T00:58:49.395Z,16.88
2023-01-27T01:04:11.228Z,19.02
2023-01-27T01:06:38.501Z,17.67
2023-01-27T01:09:05.444Z,17.75
2023-01-27T01:11:32.755Z,16.33
2023-01-27T01:13:59.700Z,18.42
2023-01-27T01:16:27.028Z,22.45
2023-01-27T01:18:54.309Z,18.38
2023-01-27T01:21:22.979Z,18.67
2023-01-27T01:23:50.291Z,22.27
2023-01-27T01:26:18.175Z,17.55
2023-01-27T01:28:46.094Z,19.45
2023-01-27T01:31:16.135Z,19.05
2023-01-27T01:33:43.272Z,18.08
2023-01-27T01:36:12.698Z,27.75
2023-01-27T01:41:11.568Z,21.95
2023-01-27T01:43:38.868Z,20.73
2023-01-27T01:46:10.040Z,22.38
2023-01-27T01:48:42.538Z,28.75
2023-01-27T01:51:13.597Z,24.55
2023-01-27T01:53:48.291Z,26.98
2023-01-27T01:56:19.243Z,23.10
2023-01-27T01:58:48.253Z,22.98
2023-01-27T02:01:17.933Z,23.58
2023-01-27T02:03:49.975Z,20.95
2023-01-27T02:06:17.586Z,22.65
2023-01-27T02:08:47.856Z,23.00
2023-01-27T02:11:15.913Z,27.65
2023-01-27T02:13:43.754Z,27.00
2023-01-27T02:16:11.986Z,26.23
2023-01-27T02:18:40.850Z,32.25
2023-01-27T02:21:08.433Z,23.80
2023-01-27T02:24:00.558Z,22.40
2023-01-27T02:26:32.347Z,28.75
2023-01-27T02:29:00.874Z,25.23
2023-01-27T02:31:28.135Z,22.90
2023-01-27T02:33:59.172Z,25.35
2023-01-27T02:36:27.822Z,21.80
2023-01-27T02:38:57.306Z,25.33
2023-01-27T02:41:30.924Z,23.08
2023-01-27T02:44:00.954Z,21.92
2023-01-27T02:46:28.415Z,22.45
2023-01-27T02:48:55.826Z,23.85
2023-01-27T02:51:23.266Z,18.13
2023-01-27T02:53:50.434Z,20.90
2023-01-27T02:56:17.497Z,25.90
2023-01-27T02:58:44.554Z,19.25
2023-01-27T03:01:13.231Z,23.38
2023-01-27T03:03:47.558Z,20.92
2023-01-27T03:06:15.191Z,18.88
2023-01-27T03:08:42.697Z,19.50
2023-01-27T03:11:10.041Z,20.98
2023-01-27T03:13:37.701Z,20.90
2023-01-27T03:16:26.831Z,22.42
2023-01-27T03:18:56.721Z,17.92
2023-01-27T03:21:24.061Z,18.13
2023-01-27T03:23:51.031Z,24.13
2023-01-27T03:26:18.227Z,14.77
2023-01-27T03:29:05.341Z,17.55
2023-01-27T03:31:32.550Z,23.23
2023-01-27T03:34:01.053Z,16.00
2023-01-27T03:36:46.812Z,18.40
2023-01-27T03:39:32.089Z,19.65
2023-01-27T03:42:17.821Z,18.45
2023-01-27T03:45:03.250Z,16.92
2023-01-27T03:47:30.796Z,20.77
2023-01-27T03:49:59.169Z,21.98
2023-01-27T03:52:26.865Z,19.27
2023-01-27T03:54:53.706Z,16.05
2023-01-27T03:57:20.921Z,19.52
2023-01-27T03:59:47.840Z,18.77
2023-01-27T04:02:35.168Z,11.75
2023-01-27T04:05:22.436Z,15.43
2023-01-27T04:07:49.555Z,22.02
2023-01-27T04:10:22.108Z,12.93
2023-01-27T04:12:52.219Z,22.25
2023-01-27T04:15:19.626Z,17.95
2023-01-27T04:17:46.961Z,22.88
2023-01-27T04:20:15.382Z,16.35
2023-01-27T04:22:43.643Z,13.98
2023-01-27T04:25:13.742Z,16.02
2023-01-27T04:27:41.438Z,19.73
2023-01-27T04:30:14.647Z,17.45
2023-01-27T04:32:45.703Z,18.77
2023-01-27T04:35:13.028Z,16.23
2023-01-27T04:37:41.943Z,16.58
2023-01-27T04:40:10.819Z,20.63
2023-01-27T04:42:37.971Z,16.70
2023-01-27T04:45:05.600Z,15.13
2023-01-27T04:47:32.804Z,14.23
2023-01-27T04:50:00.011Z,15.80
2023-01-27T04:52:27.513Z,14.35
2023-01-27T04:54:55.792Z,18.33
2023-01-27T04:57:23.071Z,15.50
2023-01-27T04:59:50.188Z,19.73
2023-01-27T05:02:17.370Z,17.23
2023-01-27T05:04:44.358Z,20.17
2023-01-27T05:07:11.571Z,19.98
2023-01-27T05:09:39.443Z,21.27
2023-01-27T05:12:08.163Z,17.77
2023-01-27T05:14:35.006Z,15.38
2023-01-27T05:17:02.186Z,20.00
2023-01-27T05:19:29.170Z,17.08
2023-01-27T05:21:56.448Z,18.67
2023-01-27T05:24:23.382Z,16.75
2023-01-27T05:26:50.574Z,16.88
2023-01-27T05:29:18.857Z,17.55
2023-01-27T05:31:46.173Z,22.42
2023-01-27T05:34:13.305Z,19.08
2023-01-27T05:36:40.444Z,17.05
2023-01-27T05:39:10.161Z,21.05
2023-01-27T05:41:37.831Z,16.92
2023-01-27T05:44:05.194Z,19.13
2023-01-27T05:46:33.928Z,20.92
2023-01-27T05:49:04.266Z,20.00
2023-01-27T05:51:33.513Z,18.30
2023-01-27T05:54:01.128Z,17.58
2023-01-27T05:56:28.621Z,18.02
2023-01-27T05:58:56.882Z,19.60
2023-01-27T06:01:26.659Z,17.52
2023-01-27T06:03:55.688Z,17.58
2023-01-27T06:06:24.885Z,20.25
2023-01-27T06:08:51.870Z,20.55
2023-01-27T06:11:21.127Z,19.42
2023-01-27T06:13:48.566Z,17.42
2023-01-27T06:16:20.672Z,19.17
2023-01-27T06:18:48.310Z,20.38
2023-01-27T06:21:17.736Z,20.75
2023-01-27T06:23:44.876Z,19.70
2023-01-27T06:26:13.787Z,16.77
2023-01-27T06:28:40.928Z,17.42
2023-01-27T06:31:09.818Z,15.38
2023-01-27T06:33:37.236Z,21.55
2023-01-27T06:36:06.899Z,20.65
2023-01-27T06:38:35.830Z,18.83
2023-01-27T06:41:03.583Z,18.65
2023-01-27T06:43:30.930Z,20.02
2023-01-27T06:45:58.268Z,15.63
2023-01-27T06:48:26.542Z,17.90
2023-01-27T06:50:54.125Z,17.38
2023-01-27T06:53:21.575Z,19.65
2023-01-27T06:55:55.770Z,19.83
2023-01-27T06:58:22.889Z,20.02
2023-01-27T07:00:50.172Z,18.60
2023-01-27T07:03:17.205Z,19.10
2023-01-27T07:05:44.558Z,16.33
2023-01-27T07:08:11.466Z,20.35
2023-01-27T07:10:39.403Z,14.77
2023-01-27T07:13:09.108Z,16.15
2023-01-27T07:15:36.711Z,27.35
2023-01-27T07:18:04.429Z,19.48
2023-01-27T07:20:32.305Z,19.35
2023-01-27T07:23:00.168Z,18.38
2023-01-27T07:25:28.677Z,18.30
2023-01-27T07:27:57.250Z,17.33
2023-01-27T07:30:26.017Z,15.13
2023-01-27T07:32:54.433Z,17.63
2023-01-27T07:35:21.938Z,17.35
2023-01-27T07:37:48.777Z,18.17
2023-01-27T07:40:16.812Z,16.08
2023-01-27T07:42:43.799Z,21.02
2023-01-27T07:45:11.222Z,15.15
2023-01-27T07:47:40.085Z,14.60
2023-01-27T07:52:34.718Z,19.00
2023-01-27T07:55:01.935Z,20.27
2023-01-27T07:57:28.895Z,22.83
2023-01-27T07:59:56.668Z,20.90
2023-01-27T08:02:24.131Z,17.70
2023-01-27T08:04:53.936Z,15.80
2023-01-27T08:07:21.070Z,17.85
2023-01-27T08:09:48.341Z,19.00
2023-01-27T08:12:15.323Z,16.85
2023-01-27T08:14:42.609Z,17.25
2023-01-27T08:17:09.539Z,19.35
2023-01-27T08:19:36.780Z,18.58
2023-01-27T08:22:05.180Z,22.23
2023-01-27T08:24:32.335Z,17.75
2023-01-27T08:26:59.170Z,19.08
2023-01-27T08:29:26.494Z,17.45
2023-01-27T08:31:53.413Z,15.32
2023-01-27T08:34:21.042Z,15.65
2023-01-27T08:36:47.993Z,15.93
2023-01-27T08:39:16.884Z,19.75
2023-01-27T08:41:43.810Z,17.98
2023-01-27T08:44:11.080Z,18.83
2023-01-27T08:46:38.039Z,19.75
2023-01-27T08:49:05.619Z,19.92
2023-01-27T08:51:34.609Z,19.63
2023-01-27T08:54:02.030Z,18.83
2023-01-27T08:56:30.845Z,18.63
2023-01-27T08:58:58.173Z,16.63
2023-01-27T09:01:25.296Z,16.80
2023-01-27T09:03:52.848Z,18.55
2023-01-27T09:06:21.799Z,21.52
2023-01-27T09:09:11.217Z,18.40
2023-01-27T09:11:41.662Z,15.80
2023-01-27T09:14:09.371Z,20.58
2023-01-27T09:16:36.730Z,18.13
2023-01-27T09:19:04.244Z,18.55
2023-01-27T09:21:31.761Z,18.88
2023-01-27T09:23:59.156Z,17.75
2023-01-27T09:26:26.162Z,19.33
2023-01-27T09:28:54.671Z,18.08
2023-01-27T09:31:21.715Z,16.97
2023-01-27T09:33:49.070Z,18.10
2023-01-27T09:36:19.151Z,15.60
2023-01-27T09:38:50.220Z,18.17
2023-01-27T09:41:46.998Z,19.45
2023-01-27T09:44:41.299Z,18.98
2023-01-27T09:47:23.805Z,19.67
2023-01-27T09:50:12.934Z,21.05
2023-01-27T09:53:00.023Z,20.40
2023-01-27T09:55:38.614Z,21.40
2023-01-27T09:58:15.606Z,22.92
2023-01-27T10:00:57.260Z,20.10
2023-01-27T10:03:38.126Z,19.20
2023-01-27T10:06:39.187Z,22.15
2023-01-27T10:09:35.630Z,21.88
2023-01-27T10:12:13.273Z,25.10
2023-01-27T10:14:50.485Z,20.52
2023-01-27T10:17:31.297Z,20.42
2023-01-27T10:20:12.746Z,21.15
2023-01-27T10:22:53.096Z,19.92
2023-01-27T10:25:31.711Z,19.70
2023-01-27T10:28:10.098Z,19.77
2023-01-27T10:30:38.283Z,45.00
2023-01-27T10:33:16.469Z,30.17
2023-01-27T10:35:51.263Z,20.17
2023-01-27T10:38:32.268Z,24.92
2023-01-27T10:41:07.604Z,18.95
2023-01-27T10:43:53.725Z,24.77
2023-01-27T10:46:34.414Z,22.95
2023-01-27T10:49:06.534Z,58.17
2023-01-27T10:51:38.228Z,58.88
2023-01-27T10:54:13.363Z,26.75
2023-01-27T10:56:45.855Z,30.95
2023-01-27T10:59:25.009Z,23.83
2023-01-27T11:02:01.717Z,22.70
2023-01-27T11:04:42.958Z,20.58
2023-01-27T11:07:18.245Z,19.10
2023-01-27T11:09:53.834Z,20.33
2023-01-27T11:12:26.518Z,22.75
2023-01-27T11:14:54.212Z,19.77
2023-01-27T11:17:29.092Z,20.00
2023-01-27T11:20:15.281Z,23.08
2023-01-27T11:22:51.080Z,20.98
2023-01-27T11:25:27.302Z,20.63
2023-01-27T11:28:05.529Z,22.55
2023-01-27T11:30:39.268Z,20.70
2023-01-27T11:33:17.812Z,14.75
2023-01-27T11:35:53.832Z,25.60
2023-01-27T11:38:22.696Z,22.08
2023-01-27T11:43:21.219Z,18.42
2023-01-27T11:45:50.015Z,20.75
2023-01-27T11:48:21.759Z,19.10
2023-01-27T11:50:51.841Z,20.15
2023-01-27T11:53:25.428Z,18.23
2023-01-27T11:55:58.292Z,19.30
2023-01-27T11:58:30.607Z,17.05
2023-01-27T12:01:01.843Z,21.67
2023-01-27T12:03:43.614Z,16.83
2023-01-27T12:06:17.369Z,21.40
2023-01-27T12:08:46.378Z,18.35
2023-01-27T12:11:24.690Z,18.65
2023-01-27T12:13:54.135Z,20.05
2023-01-27T12:16:23.629Z,19.58
2023-01-27T12:19:02.623Z,18.65
2023-01-27T12:21:47.140Z,15.73
2023-01-27T12:24:24.477Z,17.33
2023-01-27T12:26:53.562Z,19.85
2023-01-27T12:29:26.225Z,19.80
2023-01-27T12:31:55.724Z,16.25
2023-01-27T12:36:56.076Z,16.40
2023-01-27T12:39:42.057Z,17.15
2023-01-27T12:42:36.063Z,15.48
2023-01-27T12:45:19.227Z,18.85
2023-01-27T12:47:56.891Z,15.55
2023-01-27T12:50:26.265Z,14.63
2023-01-27T12:53:15.067Z,16.67
2023-01-27T12:55:46.116Z,16.63
2023-01-27T12:58:33.900Z,15.68
2023-01-27T13:01:03.097Z,17.38
2023-01-27T13:03:31.232Z,17.67
2023-01-27T13:06:00.231Z,16.88
2023-01-27T13:08:33.620Z,17.38
2023-01-27T13:11:02.827Z,14.48
2023-01-27T13:13:31.128Z,22.83
2023-01-27T13:16:08.338Z,20.92
2023-01-27T13:18:38.922Z,14.82
2023-01-27T13:21:14.302Z,15.38
2023-01-27T13:23:44.541Z,24.70
2023-01-27T13:26:17.132Z,20.15
2023-01-27T13:28:53.317Z,19.98
2023-01-27T13:31:34.203Z,22.95
2023-01-27T13:34:06.245Z,20.85
2023-01-27T13:36:40.873Z,18.38
2023-01-27T13:39:17.633Z,22.95
2023-01-27T13:41:50.067Z,16.20
2023-01-27T13:44:25.799Z,19.73
2023-01-27T13:46:55.200Z,17.80
2023-01-27T13:49:32.031Z,20.17
2023-01-27T13:51:58.951Z,16.40
2023-01-27T13:54:30.141Z,17.98
2023-01-27T13:57:18.659Z,20.17
2023-01-27T13:59:57.881Z,19.15
2023-01-27T14:02:59.213Z,18.98
2023-01-27T14:05:39.572Z,19.92
2023-01-27T14:08:20.745Z,13.77
2023-01-27T14:11:04.279Z,17.45
2023-01-27T14:13:47.414Z,16.60
2023-01-27T14:16:22.963Z,19.10
2023-01-27T14:21:56.048Z,14.60
2023-01-27T14:24:36.097Z,16.38
2023-01-27T14:27:13.117Z,14.52
2023-01-27T14:29:48.777Z,16.08
2023-01-27T14:32:26.754Z,16.27
2023-01-27T14:35:09.898Z,15.15
2023-01-27T14:37:45.343Z,15.57
2023-01-27T14:40:17.969Z,17.48
2023-01-27T14:43:07.433Z,14.27
2023-01-27T14:45:37.138Z,16.10
2023-01-27T14:48:14.598Z,19.80
2023-01-27T14:50:48.576Z,16.63
2023-01-27T14:53:32.589Z,17.02
2023-01-27T14:56:07.457Z,18.63
2023-01-27T14:58:46.674Z,14.73
2023-01-27T15:01:24.720Z,14.55
2023-01-27T15:04:16.673Z,19.83
2023-01-27T15:06:47.583Z,13.88
2023-01-27T15:09:34.566Z,14.50
2023-01-27T15:12:22.615Z,14.10
2023-01-27T15:15:21.619Z,17.85
2023-01-27T15:18:06.690Z,15.10
2023-01-27T15:20:48.773Z,16.60
2023-01-27T15:23:53.586Z,13.63
2023-01-27T15:26:25.493Z,16.45
2023-01-27T15:28:53.509Z,15.35
2023-01-27T15:31:25.464Z,15.48
2023-01-27T15:33:55.729Z,16.05
2023-01-27T15:36:35.630Z,33.88
2023-01-27T15:42:09.961Z,18.25
2023-01-27T15:44:42.494Z,16.45
2023-01-27T15:47:14.906Z,19.70
2023-01-27T15:49:46.685Z,22.48
2023-01-27T15:52:27.563Z,16.15
2023-01-27T15:54:57.757Z,20.42
2023-01-27T15:57:29.911Z,20.48
2023-01-27T16:00:04.719Z,18.88
2023-01-27T16:02:37.925Z,16.10
2023-01-27T16:05:23.921Z,18.30
2023-01-27T16:07:54.262Z,16.52
2023-01-27T16:10:24.679Z,18.42
2023-01-27T16:13:22.333Z,17.55
2023-01-27T16:16:25.174Z,19.85
2023-01-27T16:19:01.257Z,21.13
2023-01-27T16:21:43.802Z,18.92
2023-01-27T16:24:23.782Z,16.83
2023-01-27T16:26:56.556Z,19.27
2023-01-27T16:29:35.113Z,21.05
2023-01-27T16:32:07.097Z,18.60
2023-01-27T16:34:40.062Z,18.50
2023-01-27T16:37:22.327Z,17.98
2023-01-27T16:39:56.379Z,19.75
2023-01-27T16:42:31.109Z,18.98
2023-01-27T16:45:01.655Z,20.52
2023-01-27T16:47:37.506Z,19.17
2023-01-27T16:50:07.105Z,22.48
2023-01-27T16:52:42.236Z,18.35
2023-01-27T16:55:20.438Z,17.77
2023-01-27T16:57:47.708Z,20.50
2023-01-27T17:00:20.270Z,22.85
2023-01-27T17:02:48.225Z,21.65
2023-01-27T17:05:17.967Z,20.02
2023-01-27T17:08:01.875Z,23.20
2023-01-27T17:10:34.743Z,23.67
2023-01-27T17:13:03.615Z,22.02
2023-01-27T17:15:35.514Z,22.42
2023-01-27T17:18:08.006Z,23.55
2023-01-27T17:20:39.455Z,22.60
2023-01-27T17:23:07.293Z,21.95
2023-01-27T17:25:37.636Z,22.50
2023-01-27T17:28:11.621Z,26.67
2023-01-27T17:30:42.096Z,21.17
2023-01-27T17:33:17.082Z,29.95
2023-01-27T17:35:50.788Z,23.77
2023-01-27T17:38:24.252Z,25.25
2023-01-27T17:40:53.967Z,26.55
2023-01-27T17:43:28.847Z,24.73
2023-01-27T17:46:13.358Z,29.25
2023-01-27T17:48:47.074Z,23.73
2023-01-27T17:51:21.435Z,29.58
2023-01-27T17:53:49.569Z,27.80
2023-01-27T17:56:21.446Z,31.38
2023-01-27T17:58:52.950Z,26.83
2023-01-27T18:01:26.092Z,28.63
2023-01-27T18:03:56.848Z,30.75
2023-01-27T18:06:29.588Z,29.73
2023-01-27T18:09:02.361Z,25.90
2023-01-27T18:11:31.634Z,29.05
2023-01-27T18:14:01.753Z,26.38
2023-01-27T18:16:29.927Z,28.67
2023-01-27T18:19:10.047Z,28.65
2023-01-27T18:21:41.133Z,33.88
2023-01-27T18:24:20.263Z,26.83
2023-01-27T18:26:48.691Z,29.60
2023-01-27T18:29:24.656Z,30.80
2023-01-27T18:31:54.908Z,31.70
2023-01-27T18:34:28.525Z,30.88
2023-01-27T18:36:58.683Z,32.97
2023-01-27T18:39:34.432Z,25.65
2023-01-27T18:42:02.299Z,33.05
2023-01-27T18:44:35.839Z,27.42
2023-01-27T18:47:26.453Z,35.17
2023-01-27T18:50:00.435Z,33.83
2023-01-27T18:52:29.794Z,31.33
2023-01-27T18:55:01.079Z,30.98
2023-01-27T18:57:28.394Z,31.35
2023-01-27T18:59:56.401Z,28.42
2023-01-27T19:02:25.148Z,28.23
2023-01-27T19:04:52.933Z,30.55
2023-01-27T19:07:19.871Z,27.50
2023-01-27T19:09:53.295Z,32.33
2023-01-27T19:12:20.227Z,35.60
2023-01-27T19:14:48.773Z,29.27
2023-01-27T19:17:23.166Z,34.20
2023-01-27T19:19:50.532Z,34.35
2023-01-27T19:22:19.796Z,38.38
2023-01-27T19:24:50.480Z,34.35
2023-01-27T19:27:19.311Z,32.00
2023-01-27T19:32:14.611Z,31.67
2023-01-27T19:34:41.893Z,27.50
2023-01-27T19:37:16.968Z,29.38
2023-01-27T19:39:45.086Z,29.65
2023-01-27T19:42:14.793Z,30.40
2023-01-27T19:44:42.403Z,33.67
2023-01-27T19:47:11.966Z,39.75
2023-01-27T19:49:41.563Z,34.35
2023-01-27T19:52:10.127Z,36.70
2023-01-27T19:54:37.975Z,34.55
2023-01-27T19:57:06.027Z,38.90
2023-01-27T19:59:34.977Z,36.60
2023-01-27T20:02:01.959Z,44.08
2023-01-27T20:04:29.623Z,42.60
2023-01-27T20:06:57.743Z,38.92
2023-01-27T20:09:25.016Z,38.65
2023-01-27T20:11:52.071Z,36.88
2023-01-27T20:14:20.387Z,37.92
2023-01-27T20:16:48.743Z,36.20
2023-01-27T20:19:16.561Z,44.45
2023-01-27T20:21:45.664Z,35.70
2023-01-27T20:24:15.735Z,39.83
2023-01-27T20:26:42.789Z,42.35
2023-01-27T20:29:10.169Z,35.85
2023-01-27T20:31:39.233Z,35.60
2023-01-27T20:34:08.236Z,35.90
2023-01-27T20:36:36.338Z,36.83
2023-01-27T20:39:04.517Z,40.17
2023-01-27T20:41:31.529Z,40.67
2023-01-27T20:44:00.469Z,42.75
2023-01-27T20:46:28.526Z,36.70
2023-01-27T20:48:56.421Z,41.10
2023-01-27T20:51:25.102Z,42.20
2023-01-27T20:56:21.027Z,26.48
2023-01-27T20:58:48.966Z,35.95
2023-01-27T21:01:17.681Z,31.83
2023-01-27T21:03:45.079Z,30.13
2023-01-27T21:06:13.951Z,29.88
2023-01-27T21:11:20.544Z,34.58
2023-01-27T21:13:48.683Z,31.88
2023-01-27T21:16:15.647Z,27.15
2023-01-27T21:18:44.152Z,28.38
2023-01-27T21:21:22.125Z,29.23
2023-01-27T21:23:50.808Z,30.30
2023-01-27T21:26:17.714Z,28.25
2023-01-27T21:28:45.049Z,25.42
2023-01-27T21:31:16.238Z,28.52
2023-01-27T21:33:45.736Z,28.00
2023-01-27T21:38:40.468Z,28.40
2023-01-27T21:41:11.709Z,28.65
2023-01-27T21:43:57.858Z,31.58
2023-01-27T21:46:24.971Z,32.55
2023-01-27T21:48:52.417Z,29.42
2023-01-27T21:51:19.429Z,31.58
2023-01-27T21:53:46.660Z,30.50
2023-01-27T21:56:14.960Z,39.22
2023-01-27T21:58:42.367Z,32.72
2023-01-27T22:01:10.801Z,31.10
2023-01-27T22:03:38.528Z,31.85
2023-01-27T22:06:06.913Z,38.70
2023-01-27T22:08:34.462Z,30.88
2023-01-27T22:11:04.788Z,30.95
2023-01-27T22:13:33.823Z,31.02
2023-01-27T22:16:01.065Z,29.23
2023-01-27T22:18:28.353Z,32.40
2023-01-27T22:20:55.564Z,31.50
2023-01-27T22:23:25.073Z,33.05
2023-01-27T22:28:19.970Z,31.70
2023-01-27T22:30:48.746Z,31.85
2023-01-27T22:33:16.190Z,32.63
2023-01-27T22:35:43.309Z,27.55
2023-01-27T22:38:10.634Z,27.42
2023-01-27T22:40:37.474Z,30.42
2023-01-27T22:43:10.038Z,34.72
2023-01-27T22:45:38.270Z,31.90
2023-01-27T22:48:08.803Z,33.22
2023-01-27T22:50:36.289Z,31.30
2023-01-27T22:53:05.373Z,32.22
2023-01-27T22:55:32.347Z,33.75
2023-01-27T22:57:59.472Z,30.67
2023-01-27T23:00:26.442Z,31.92
2023-01-27T23:02:54.345Z,27.40
2023-01-27T23:05:22.695Z,26.45
2023-01-27T23:07:49.847Z,32.00
2023-01-27T23:10:17.417Z,28.15
2023-01-27T23:12:45.035Z,29.15
2023-01-27T23:15:12.461Z,28.35
2023-01-27T23:17:40.081Z,27.33
2023-01-27T23:20:08.593Z,34.35
2023-01-27T23:22:37.353Z,32.58
2023-01-27T23:25:05.079Z,31.90
2023-01-27T23:27:32.724Z,31.88
2023-01-27T23:29:59.714Z,34.40
2023-01-27T23:32:26.977Z,32.95
2023-01-27T23:34:53.901Z,30.15
2023-01-27T23:37:21.142Z,33.45
2023-01-27T23:39:49.826Z,31.58
2023-01-27T23:42:17.705Z,30.40
2023-01-27T23:44:44.795Z,36.35
2023-01-27T23:47:12.828Z,37.60
2023-01-27T23:49:39.917Z,39.75
2023-01-27T23:52:07.521Z,30.98
2023-01-27T23:54:34.634Z,40.15
2023-01-27T23:57:03.329Z,33.30
2023-01-27T23:59:30.286Z,33.03
